createdAt,value
2023-01-25T00:01:11.855Z,99127.44
2023-01-25T00:03:39.020Z,99123.22
2023-01-25T00:06:06.580Z,99126.63
2023-01-25T00:08:33.778Z,99122.25
2023-01-25T00:11:00.914Z,99123.22
2023-01-25T00:13:28.094Z,99117.03
2023-01-25T00:16:05.161Z,99108.25
2023-01-25T00:18:32.367Z,99112.97
2023-01-25T00:20:59.547Z,99097.81
2023-01-25T00:23:26.836Z,99102.38
2023-01-25T00:25:59.904Z,99117.50
2023-01-25T00:28:27.154Z,99118.19
2023-01-25T00:30:54.361Z,99113.13
2023-01-25T00:33:46.046Z,99106.63
2023-01-25T00:36:40.498Z,99100.75
2023-01-25T00:39:13.169Z,99108.22
2023-01-25T00:41:41.201Z,99105.00
2023-01-25T00:44:08.729Z,99101.06
2023-01-25T00:46:36.583Z,99100.09
2023-01-25T00:49:06.989Z,99099.47
2023-01-25T00:51:34.410Z,99091.81
2023-01-25T00:54:01.653Z,99097.97
2023-01-25T00:56:29.009Z,99089.84
2023-01-25T00:58:56.242Z,99087.06
2023-01-25T01:01:23.603Z,99078.78
2023-01-25T01:03:52.679Z,99070.63
2023-01-25T01:06:19.987Z,99072.44
2023-01-25T01:08:47.230Z,99069.66
2023-01-25T01:11:14.456Z,99062.66
2023-01-25T01:13:41.784Z,99065.44
2023-01-25T01:16:12.241Z,99059.88
2023-01-25T01:18:45.816Z,99060.06
2023-01-25T01:21:14.625Z,99062.00
2023-01-25T01:23:42.089Z,99070.16
2023-01-25T01:26:14.040Z,99071.28
2023-01-25T01:28:42.096Z,99060.22
2023-01-25T01:31:17.809Z,99055.66
2023-01-25T01:34:01.178Z,99047.53
2023-01-25T01:36:30.783Z,99057.94
2023-01-25T01:38:59.970Z,99056.16
2023-01-25T01:41:27.937Z,99050.78
2023-01-25T01:43:55.403Z,99045.91
2023-01-25T01:46:37.571Z,99039.72
2023-01-25T01:49:27.964Z,99043.63
2023-01-25T01:52:13.201Z,99046.72
2023-01-25T01:55:01.646Z,99045.25
2023-01-25T01:57:53.833Z,99043.31
2023-01-25T02:00:28.579Z,99040.53
2023-01-25T02:02:56.293Z,99029.16
2023-01-25T02:05:35.876Z,99027.03
2023-01-25T02:08:05.659Z,99025.72
2023-01-25T02:10:34.099Z,99027.84
2023-01-25T02:13:01.638Z,99031.75
2023-01-25T02:15:43.726Z,99031.75
2023-01-25T02:18:12.522Z,99027.19
2023-01-25T02:20:48.520Z,99023.94
2023-01-25T02:23:51.611Z,99023.78
2023-01-25T02:26:19.775Z,99011.88
2023-01-25T02:29:07.174Z,99013.66
2023-01-25T02:31:34.808Z,99001.63
2023-01-25T02:34:02.108Z,99005.03
2023-01-25T02:36:33.172Z,99011.88
2023-01-25T02:39:17.304Z,99013.47
2023-01-25T02:41:50.364Z,99007.94
2023-01-25T02:44:21.936Z,98997.22
2023-01-25T02:46:49.420Z,98998.66
2023-01-25T02:49:17.301Z,98995.75
2023-01-25T02:51:49.841Z,98990.22
2023-01-25T02:54:19.649Z,98993.47
2023-01-25T02:56:50.152Z,98986.94
2023-01-25T02:59:19.086Z,98977.53
2023-01-25T03:01:50.898Z,98976.38
2023-01-25T03:04:18.667Z,98980.13
2023-01-25T03:06:46.034Z,98983.22
2023-01-25T03:09:13.453Z,98981.78
2023-01-25T03:11:45.202Z,98982.41
2023-01-25T03:14:15.114Z,98986.00
2023-01-25T03:16:42.341Z,98990.72
2023-01-25T03:19:09.831Z,98982.25
2023-01-25T03:21:41.560Z,98982.75
2023-01-25T03:24:10.588Z,98979.66
2023-01-25T03:27:02.315Z,98982.25
2023-01-25T03:29:38.442Z,98990.91
2023-01-25T03:32:14.108Z,98973.97
2023-01-25T03:34:41.704Z,98978.22
2023-01-25T03:37:09.958Z,98975.91
2023-01-25T03:39:39.219Z,98978.88
2023-01-25T03:42:06.600Z,98970.88
2023-01-25T03:44:33.898Z,98979.50
2023-01-25T03:47:01.521Z,98975.59
2023-01-25T03:49:29.990Z,98973.66
2023-01-25T03:51:58.723Z,98979.19
2023-01-25T03:54:38.168Z,98978.41
2023-01-25T03:57:07.327Z,98969.28
2023-01-25T03:59:42.393Z,98976.09
2023-01-25T04:02:09.685Z,98979.22
2023-01-25T04:04:36.906Z,98976.44
2023-01-25T04:07:04.329Z,98978.25
2023-01-25T04:09:33.289Z,98972.72
2023-01-25T04:12:00.564Z,98973.66
2023-01-25T04:14:43.272Z,98971.38
2023-01-25T04:17:14.194Z,98972.88
2023-01-25T04:19:53.983Z,98975.63
2023-01-25T04:22:25.673Z,98978.38
2023-01-25T04:24:55.459Z,98971.72
2023-01-25T04:27:22.842Z,98976.63
2023-01-25T04:29:57.795Z,98963.91
2023-01-25T04:32:26.826Z,98973.34
2023-01-25T04:34:54.531Z,98971.38
2023-01-25T04:37:24.282Z,98968.66
2023-01-25T04:39:55.868Z,98967.66
2023-01-25T04:42:23.396Z,98969.59
2023-01-25T04:44:54.363Z,98967.16
2023-01-25T04:47:21.893Z,98963.75
2023-01-25T04:49:49.111Z,98960.00
2023-01-25T04:52:19.249Z,98953.19
2023-01-25T04:54:46.436Z,98958.53
2023-01-25T04:57:13.803Z,98956.59
2023-01-25T04:59:46.331Z,98957.22
2023-01-25T05:02:14.825Z,98957.22
2023-01-25T05:04:42.447Z,98949.25
2023-01-25T05:07:09.766Z,98949.41
2023-01-25T05:09:37.102Z,98951.19
2023-01-25T05:12:11.654Z,98947.47
2023-01-25T05:14:51.587Z,98947.63
2023-01-25T05:17:18.848Z,98943.94
2023-01-25T05:19:46.182Z,98945.06
2023-01-25T05:22:20.771Z,98943.59
2023-01-25T05:24:51.502Z,98941.78
2023-01-25T05:27:21.394Z,98941.34
2023-01-25T05:29:55.158Z,98924.72
2023-01-25T05:32:50.482Z,98934.66
2023-01-25T05:35:18.344Z,98925.56
2023-01-25T05:37:46.341Z,98930.25
2023-01-25T05:40:21.998Z,98935.63
2023-01-25T05:43:00.163Z,98933.16
2023-01-25T05:45:30.247Z,98938.22
2023-01-25T05:47:59.106Z,98935.97
2023-01-25T05:50:26.939Z,98934.31
2023-01-25T05:53:04.634Z,98928.47
2023-01-25T05:55:31.994Z,98926.66
2023-01-25T05:58:04.385Z,98924.41
2023-01-25T06:00:32.255Z,98929.25
2023-01-25T06:03:02.368Z,98915.94
2023-01-25T06:05:31.947Z,98924.56
2023-01-25T06:07:59.731Z,98920.97
2023-01-25T06:10:33.138Z,98922.91
2023-01-25T06:13:00.773Z,98927.81
2023-01-25T06:15:28.135Z,98928.78
2023-01-25T06:18:02.449Z,98924.72
2023-01-25T06:20:56.320Z,98925.88
2023-01-25T06:23:29.428Z,98925.72
2023-01-25T06:26:03.228Z,98921.63
2023-01-25T06:28:32.704Z,98918.72
2023-01-25T06:31:18.002Z,98924.56
2023-01-25T06:33:50.820Z,98917.44
2023-01-25T06:36:22.715Z,98918.88
2023-01-25T06:38:52.200Z,98916.28
2023-01-25T06:41:20.313Z,98914.66
2023-01-25T06:43:50.656Z,98909.13
2023-01-25T06:46:18.378Z,98911.25
2023-01-25T06:48:45.850Z,98908.47
2023-01-25T06:51:15.128Z,98897.91
2023-01-25T06:53:44.901Z,98902.16
2023-01-25T06:56:21.919Z,98897.56
2023-01-25T06:58:50.689Z,98905.72
2023-01-25T07:01:21.427Z,98901.97
2023-01-25T07:03:49.949Z,98901.00
2023-01-25T07:06:18.113Z,98901.34
2023-01-25T07:08:45.992Z,98902.94
2023-01-25T07:11:14.723Z,98899.22
2023-01-25T07:13:46.081Z,98901.34
2023-01-25T07:16:18.697Z,98900.34
2023-01-25T07:18:46.287Z,98896.72
2023-01-25T07:21:22.863Z,98897.25
2023-01-25T07:23:51.630Z,98891.41
2023-01-25T07:26:21.199Z,98899.03
2023-01-25T07:28:49.736Z,98893.03
2023-01-25T07:31:18.627Z,98899.22
2023-01-25T07:33:55.228Z,98890.25
2023-01-25T07:36:23.381Z,98890.09
2023-01-25T07:38:55.114Z,98893.84
2023-01-25T07:41:24.718Z,98888.13
2023-01-25T07:43:53.324Z,98892.50
2023-01-25T07:46:39.956Z,98888.44
2023-01-25T07:49:07.266Z,98881.16
2023-01-25T07:51:34.506Z,98882.59
2023-01-25T07:54:04.846Z,98884.06
2023-01-25T07:56:40.836Z,98883.38
2023-01-25T07:59:12.565Z,98875.94
2023-01-25T08:01:40.254Z,98878.09
2023-01-25T08:04:09.211Z,98876.75
2023-01-25T08:06:41.142Z,98867.16
2023-01-25T08:09:16.184Z,98869.88
2023-01-25T08:11:43.682Z,98864.47
2023-01-25T08:14:11.504Z,98867.56
2023-01-25T08:16:38.925Z,98869.88
2023-01-25T08:19:06.249Z,98865.31
2023-01-25T08:21:35.988Z,98860.41
2023-01-25T08:24:07.160Z,98848.56
2023-01-25T08:26:36.315Z,98848.25
2023-01-25T08:29:04.994Z,98845.28
2023-01-25T08:31:35.525Z,98843.28
2023-01-25T08:34:03.752Z,98850.13
2023-01-25T08:36:31.117Z,98843.63
2023-01-25T08:39:09.080Z,98836.13
2023-01-25T08:41:36.907Z,98836.72
2023-01-25T08:44:05.175Z,98837.13
2023-01-25T08:46:34.238Z,98830.72
2023-01-25T08:49:03.059Z,98839.34
2023-01-25T08:51:32.210Z,98831.69
2023-01-25T08:54:12.881Z,98835.69
2023-01-25T08:56:44.332Z,98847.88
2023-01-25T08:59:12.981Z,98842.91
2023-01-25T09:01:40.678Z,98836.44
2023-01-25T09:04:08.026Z,98833.69
2023-01-25T09:06:35.309Z,98836.22
2023-01-25T09:09:04.309Z,98835.75
2023-01-25T09:11:34.434Z,98833.34
2023-01-25T09:14:01.684Z,98833.84
2023-01-25T09:16:29.451Z,98835.31
2023-01-25T09:19:06.443Z,98836.03
2023-01-25T09:21:34.948Z,98828.03
2023-01-25T09:24:06.885Z,98823.13
2023-01-25T09:26:39.324Z,98823.31
2023-01-25T09:29:08.342Z,98823.19
2023-01-25T09:31:37.055Z,98818.31
2023-01-25T09:34:14.958Z,98816.78
2023-01-25T09:36:42.342Z,98807.31
2023-01-25T09:39:14.534Z,98805.81
2023-01-25T09:42:22.501Z,98806.00
2023-01-25T09:45:16.982Z,98810.47
2023-01-25T09:47:49.994Z,98799.47
2023-01-25T09:50:53.030Z,98799.13
2023-01-25T09:53:53.344Z,98790.63
2023-01-25T09:56:30.632Z,98777.91
2023-01-25T09:59:16.626Z,98769.78
2023-01-25T10:02:10.652Z,98773.47
2023-01-25T10:04:42.518Z,98770.41
2023-01-25T10:07:31.064Z,98781.19
2023-01-25T10:10:29.752Z,98767.56
2023-01-25T10:12:57.166Z,98761.03
2023-01-25T10:15:33.118Z,98769.25
2023-01-25T10:18:37.422Z,98753.88
2023-01-25T10:21:13.156Z,98755.84
2023-01-25T10:23:40.372Z,98747.31
2023-01-25T10:26:27.975Z,98748.13
2023-01-25T10:29:07.705Z,98742.53
2023-01-25T10:31:53.287Z,98740.84
2023-01-25T10:34:22.057Z,98736.47
2023-01-25T10:36:55.477Z,98727.88
2023-01-25T10:39:23.593Z,98721.50
2023-01-25T10:42:07.397Z,98714.75
2023-01-25T10:44:36.134Z,98725.19
2023-01-25T10:47:31.883Z,98715.38
2023-01-25T10:50:00.360Z,98717.91
2023-01-25T10:52:32.744Z,98708.59
2023-01-25T10:55:22.381Z,98710.78
2023-01-25T10:57:59.644Z,98707.22
2023-01-25T11:00:41.437Z,98701.00
2023-01-25T11:03:22.002Z,98696.28
2023-01-25T11:05:57.507Z,98685.03
2023-01-25T11:08:40.292Z,98675.63
2023-01-25T11:11:40.590Z,98663.69
2023-01-25T11:14:18.529Z,98671.50
2023-01-25T11:16:50.607Z,98659.22
2023-01-25T11:19:31.254Z,98658.44
2023-01-25T11:22:00.855Z,98656.03
2023-01-25T11:24:35.279Z,98658.50
2023-01-25T11:27:27.314Z,98657.25
2023-01-25T11:30:19.317Z,98663.03
2023-01-25T11:32:46.746Z,98654.22
2023-01-25T11:35:17.175Z,98658.91
2023-01-25T11:38:04.939Z,98654.47
2023-01-25T11:40:48.579Z,98637.38
2023-01-25T11:44:08.248Z,98635.75
2023-01-25T11:46:41.180Z,98617.91
2023-01-25T11:49:56.152Z,98620.94
2023-01-25T11:52:57.682Z,98619.41
2023-01-25T11:55:59.357Z,98617.81
2023-01-25T11:59:05.956Z,98610.00
2023-01-25T12:02:02.035Z,98610.97
2023-01-25T12:04:57.769Z,98607.47
2023-01-25T12:07:43.736Z,98609.16
2023-01-25T12:10:51.541Z,98603.16
2023-01-25T12:13:53.453Z,98601.84
2023-01-25T12:16:35.633Z,98603.03
2023-01-25T12:19:33.923Z,98597.44
2023-01-25T12:22:17.422Z,98590.38
2023-01-25T12:25:13.182Z,98595.91
2023-01-25T12:28:21.278Z,98591.72
2023-01-25T12:31:14.734Z,98576.78
2023-01-25T12:34:02.511Z,98579.56
2023-01-25T12:36:44.004Z,98573.34
2023-01-25T12:39:41.147Z,98575.66
2023-01-25T12:42:23.127Z,98566.69
2023-01-25T12:45:17.217Z,98565.03
2023-01-25T12:47:56.326Z,98561.97
2023-01-25T12:50:40.465Z,98563.53
2023-01-25T12:53:27.880Z,98558.94
2023-01-25T12:55:56.201Z,98558.75
2023-01-25T12:58:49.560Z,98551.44
2023-01-25T13:01:38.028Z,98545.53
2023-01-25T13:04:53.512Z,98536.63
2023-01-25T13:07:54.475Z,98530.41
2023-01-25T13:10:31.448Z,98527.97
2023-01-25T13:13:17.120Z,98526.38
2023-01-25T13:15:46.650Z,98531.78
2023-01-25T13:18:28.935Z,98518.63
2023-01-25T13:21:11.412Z,98512.22
2023-01-25T13:23:45.946Z,98517.84
2023-01-25T13:26:22.346Z,98526.22
2023-01-25T13:28:52.613Z,98520.88
2023-01-25T13:31:51.039Z,98504.78
2023-01-25T13:34:57.324Z,98501.88
2023-01-25T13:37:33.799Z,98507.16
2023-01-25T13:40:28.938Z,98500.97
2023-01-25T13:43:18.730Z,98500.88
2023-01-25T13:45:50.752Z,98496.34
2023-01-25T13:48:22.765Z,98492.75
2023-01-25T13:50:57.724Z,98496.31
2023-01-25T13:53:33.314Z,98501.88
2023-01-25T13:56:01.663Z,98488.19
2023-01-25T13:58:37.405Z,98486.84
2023-01-25T14:01:13.595Z,98482.63
2023-01-25T14:03:49.130Z,98484.06
2023-01-25T14:06:21.005Z,98476.75
2023-01-25T14:08:50.403Z,98479.63
2023-01-25T14:11:29.074Z,98476.66
2023-01-25T14:14:25.138Z,98472.28
2023-01-25T14:17:14.166Z,98476.97
2023-01-25T14:19:44.650Z,98473.13
2023-01-25T14:22:28.070Z,98463.00
2023-01-25T14:25:17.524Z,98463.25
2023-01-25T14:28:01.339Z,98455.69
2023-01-25T14:30:36.724Z,98453.28
2023-01-25T14:33:23.412Z,98454.53
2023-01-25T14:35:58.594Z,98439.91
2023-01-25T14:38:41.216Z,98444.56
2023-01-25T14:41:34.399Z,98445.53
2023-01-25T14:44:14.781Z,98445.81
2023-01-25T14:46:42.475Z,98438.91
2023-01-25T14:49:26.404Z,98435.56
2023-01-25T14:52:11.862Z,98443.38
2023-01-25T14:54:56.133Z,98444.63
2023-01-25T14:57:37.356Z,98431.38
2023-01-25T15:00:19.210Z,98441.97
2023-01-25T15:03:15.840Z,98440.44
2023-01-25T15:05:47.111Z,98442.59
2023-01-25T15:08:37.548Z,98432.63
2023-01-25T15:11:34.769Z,98428.59
2023-01-25T15:14:07.508Z,98426.69
2023-01-25T15:16:36.227Z,98417.88
2023-01-25T15:19:03.646Z,98419.53
2023-01-25T15:21:34.402Z,98415.56
2023-01-25T15:24:06.928Z,98420.59
2023-01-25T15:26:36.155Z,98411.97
2023-01-25T15:29:16.871Z,98421.03
2023-01-25T15:31:44.373Z,98413.59
2023-01-25T15:34:30.352Z,98408.91
2023-01-25T15:36:57.652Z,98402.19
2023-01-25T15:39:27.660Z,98402.38
2023-01-25T15:41:54.856Z,98400.03
2023-01-25T15:44:22.103Z,98390.88
2023-01-25T15:46:51.582Z,98393.75
2023-01-25T15:49:31.726Z,98389.72
2023-01-25T15:51:59.012Z,98385.28
2023-01-25T15:54:26.450Z,98391.94
2023-01-25T15:56:58.464Z,98380.16
2023-01-25T15:59:27.153Z,98386.09
2023-01-25T16:01:54.393Z,98375.44
2023-01-25T16:04:21.658Z,98383.59
2023-01-25T16:06:52.502Z,98382.63
2023-01-25T16:09:30.933Z,98375.25
2023-01-25T16:12:01.605Z,98378.03
2023-01-25T16:14:31.520Z,98377.31
2023-01-25T16:17:03.106Z,98374.72
2023-01-25T16:19:31.481Z,98371.50
2023-01-25T16:21:58.746Z,98371.13
2023-01-25T16:24:26.015Z,98365.28
2023-01-25T16:26:59.010Z,98365.00
2023-01-25T16:29:26.570Z,98348.81
2023-01-25T16:31:55.023Z,98361.84
2023-01-25T16:34:23.195Z,98347.38
2023-01-25T16:36:53.297Z,98341.19
2023-01-25T16:39:27.986Z,98339.59
2023-01-25T16:41:57.352Z,98338.81
2023-01-25T16:44:24.630Z,98333.41
2023-01-25T16:46:51.855Z,98333.69
2023-01-25T16:49:28.116Z,98322.59
2023-01-25T16:51:55.986Z,98330.97
2023-01-25T16:54:24.860Z,98317.81
2023-01-25T16:56:53.855Z,98314.59
2023-01-25T16:59:23.329Z,98312.34
2023-01-25T17:01:50.868Z,98313.06
2023-01-25T17:04:18.711Z,98299.06
2023-01-25T17:06:50.431Z,98301.41
2023-01-25T17:09:23.992Z,98309.47
2023-01-25T17:11:53.658Z,98294.31
2023-01-25T17:14:22.282Z,98303.13
2023-01-25T17:16:51.896Z,98289.00
2023-01-25T17:19:20.123Z,98278.78
2023-01-25T17:21:48.348Z,98279.94
2023-01-25T17:24:19.189Z,98279.03
2023-01-25T17:26:47.029Z,98279.19
2023-01-25T17:29:14.461Z,98276.72
2023-01-25T17:31:42.462Z,98278.16
2023-01-25T17:34:16.314Z,98267.09
2023-01-25T17:36:44.760Z,98273.94
2023-01-25T17:39:17.643Z,98270.78
2023-01-25T17:41:49.742Z,98270.78
2023-01-25T17:44:23.230Z,98269.28
2023-01-25T17:46:51.478Z,98265.16
2023-01-25T17:49:18.995Z,98268.38
2023-01-25T17:51:46.772Z,98256.16
2023-01-25T17:54:14.328Z,98260.63
2023-01-25T17:56:41.652Z,98256.25
2023-01-25T17:59:11.445Z,98256.97
2023-01-25T18:01:39.612Z,98245.59
2023-01-25T18:04:08.501Z,98248.28
2023-01-25T18:06:36.272Z,98238.78
2023-01-25T18:09:08.272Z,98236.50
2023-01-25T18:11:37.997Z,98231.09
2023-01-25T18:14:08.985Z,98229.66
2023-01-25T18:16:39.752Z,98232.75
2023-01-25T18:19:07.656Z,98234.91
2023-01-25T18:21:36.460Z,98231.94
2023-01-25T18:24:26.077Z,98229.06
2023-01-25T18:27:00.576Z,98229.72
2023-01-25T18:30:23.085Z,98229.47
2023-01-25T18:32:50.252Z,98228.81
2023-01-25T18:35:17.521Z,98225.88
2023-01-25T18:37:46.577Z,98218.13
2023-01-25T18:40:15.633Z,98220.03
2023-01-25T18:42:42.932Z,98216.28
2023-01-25T18:45:12.814Z,98221.47
2023-01-25T18:47:40.216Z,98209.00
2023-01-25T18:50:13.983Z,98217.19
2023-01-25T18:52:41.268Z,98205.41
2023-01-25T18:55:09.194Z,98212.13
2023-01-25T18:57:36.626Z,98205.41
2023-01-25T19:00:06.253Z,98209.00
2023-01-25T19:02:36.118Z,98207.31
2023-01-25T19:05:03.542Z,98198.41
2023-01-25T19:07:30.819Z,98200.50
2023-01-25T19:09:58.164Z,98194.72
2023-01-25T19:12:27.696Z,98186.81
2023-01-25T19:14:55.038Z,98187.66
2023-01-25T19:17:22.402Z,98185.88
2023-01-25T19:19:49.551Z,98177.44
2023-01-25T19:22:16.830Z,98178.59
2023-01-25T19:24:44.165Z,98177.09
2023-01-25T19:27:11.474Z,98172.47
2023-01-25T19:29:38.896Z,98172.22
2023-01-25T19:32:06.449Z,98170.56
2023-01-25T19:34:33.747Z,98170.63
2023-01-25T19:37:01.015Z,98161.91
2023-01-25T19:39:28.335Z,98159.13
2023-01-25T19:41:55.631Z,98160.72
2023-01-25T19:44:24.017Z,98158.69
2023-01-25T19:46:51.324Z,98142.13
2023-01-25T19:49:18.879Z,98143.50
2023-01-25T19:51:52.767Z,98148.69
2023-01-25T19:54:21.761Z,98150.03
2023-01-25T19:56:50.052Z,98154.34
2023-01-25T19:59:24.920Z,98154.50
2023-01-25T20:01:52.694Z,98153.75
2023-01-25T20:04:23.668Z,98152.53
2023-01-25T20:06:52.157Z,98145.34
2023-01-25T20:09:20.500Z,98146.69
2023-01-25T20:11:47.804Z,98135.16
2023-01-25T20:14:15.853Z,98133.91
2023-01-25T20:16:43.467Z,98137.81
2023-01-25T20:19:12.526Z,98133.19
2023-01-25T20:21:40.376Z,98132.81
2023-01-25T20:24:10.313Z,98122.59
2023-01-25T20:26:40.347Z,98123.78
2023-01-25T20:29:08.203Z,98117.31
2023-01-25T20:31:44.836Z,98114.09
2023-01-25T20:34:18.847Z,98118.28
2023-01-25T20:36:47.217Z,98115.28
2023-01-25T20:39:18.394Z,98118.41
2023-01-25T20:41:47.189Z,98117.66
2023-01-25T20:44:18.738Z,98120.53
2023-01-25T20:46:46.181Z,98118.28
2023-01-25T20:49:18.742Z,98112.59
2023-01-25T20:51:46.965Z,98114.16
2023-01-25T20:54:15.289Z,98107.34
2023-01-25T20:56:43.219Z,98111.19
2023-01-25T20:59:10.875Z,98101.75
2023-01-25T21:01:40.714Z,98102.19
2023-01-25T21:04:09.740Z,98109.81
2023-01-25T21:06:38.587Z,98102.03
2023-01-25T21:09:05.947Z,98103.44
2023-01-25T21:11:33.493Z,98092.03
2023-01-25T21:14:01.047Z,98092.75
2023-01-25T21:16:28.419Z,98096.22
2023-01-25T21:18:58.749Z,98089.41
2023-01-25T21:21:29.312Z,98087.06
2023-01-25T21:24:00.347Z,98084.97
2023-01-25T21:26:32.340Z,98088.25
2023-01-25T21:29:01.668Z,98087.06
2023-01-25T21:31:33.008Z,98080.25
2023-01-25T21:34:01.692Z,98086.13
2023-01-25T21:36:31.582Z,98080.00
2023-01-25T21:38:59.307Z,98082.34
2023-01-25T21:41:30.393Z,98078.19
2023-01-25T21:44:18.817Z,98083.75
2023-01-25T21:47:12.326Z,98086.31
2023-01-25T21:49:52.632Z,98074.88
2023-01-25T21:52:19.919Z,98083.09
2023-01-25T21:54:47.109Z,98079.56
2023-01-25T21:57:14.395Z,98071.91
2023-01-25T21:59:41.589Z,98067.66
2023-01-25T22:02:14.079Z,98071.13
2023-01-25T22:04:41.462Z,98064.16
2023-01-25T22:07:09.719Z,98059.22
2023-01-25T22:09:36.995Z,98058.44
2023-01-25T22:12:04.596Z,98067.44
2023-01-25T22:14:31.830Z,98053.81
2023-01-25T22:16:59.019Z,98051.34
2023-01-25T22:19:28.797Z,98054.22
2023-01-25T22:21:55.949Z,98054.28
2023-01-25T22:24:23.355Z,98045.97
2023-01-25T22:27:08.633Z,98046.00
2023-01-25T22:29:35.911Z,98038.75
2023-01-25T22:32:03.172Z,98034.59
2023-01-25T22:34:33.556Z,98038.31
2023-01-25T22:37:00.951Z,98038.50
2023-01-25T22:39:28.255Z,98032.69
2023-01-25T22:41:56.615Z,98030.50
2023-01-25T22:44:26.382Z,98031.50
2023-01-25T22:46:53.906Z,98025.56
2023-01-25T22:49:21.196Z,98021.78
2023-01-25T22:51:48.490Z,98027.72
2023-01-25T22:54:15.740Z,98029.66
2023-01-25T22:56:43.108Z,98036.09
2023-01-25T22:59:14.877Z,98027.09
2023-01-25T23:01:42.132Z,98025.09
2023-01-25T23:04:09.389Z,98010.56
2023-01-25T23:06:37.521Z,98012.97
2023-01-25T23:09:06.810Z,98014.56
2023-01-25T23:11:38.573Z,98006.53
2023-01-25T23:14:27.392Z,98008.38
2023-01-25T23:17:14.696Z,97998.34
2023-01-25T23:19:42.032Z,97994.94
2023-01-25T23:22:09.275Z,97986.38
2023-01-25T23:24:36.486Z,97986.75
2023-01-25T23:27:03.715Z,97989.97
2023-01-25T23:29:33.443Z,97990.38
2023-01-25T23:32:00.817Z,97990.38
2023-01-25T23:34:28.055Z,97987.25
2023-01-25T23:36:55.283Z,97979.41
2023-01-25T23:39:23.665Z,97980.28
2023-01-25T23:41:52.473Z,97972.94
2023-01-25T23:44:19.741Z,97973.75
2023-01-25T23:46:46.991Z,97966.13
2023-01-25T23:49:14.350Z,97958.91
2023-01-25T23:51:41.644Z,97963.69
2023-01-25T23:54:08.928Z,97959.75
2023-01-25T23:56:36.158Z,97955.66
2023-01-25T23:59:07.772Z,97948.50
